createdAt,value
2019-01-06T00:00:39.139Z,1017.21
2019-01-06T00:01:37.846Z,1017.19
2019-01-06T00:02:36.414Z,1017.18
2019-01-06T00:03:35.191Z,1017.22
2019-01-06T00:04:33.868Z,1017.16
2019-01-06T00:05:32.446Z,1017.19
2019-01-06T00:06:31.124Z,1017.16
2019-01-06T00:07:29.695Z,1017.15
2019-01-06T00:08:28.215Z,1017.15
2019-01-06T00:09:26.794Z,1017.15
2019-01-06T00:10:25.690Z,1017.12
2019-01-06T00:11:24.394Z,1017.13
2019-01-06T00:12:23.164Z,1017.16
2019-01-06T00:13:21.726Z,1017.12
2019-01-06T00:14:20.285Z,1017.17
2019-01-06T00:15:18.969Z,1017.17
2019-01-06T00:16:17.694Z,1017.11
2019-01-06T00:17:17.318Z,1017.14
2019-01-06T00:18:16.089Z,1017.15
2019-01-06T00:19:14.609Z,1017.14
2019-01-06T00:20:13.295Z,1017.13
2019-01-06T00:21:11.883Z,1017.14
2019-01-06T00:22:10.442Z,1017.12
2019-01-06T00:23:09.178Z,1017.19
2019-01-06T00:24:07.849Z,1017.12
2019-01-06T00:25:06.508Z,1017.1
2019-01-06T00:26:05.323Z,1017.1
2019-01-06T00:27:03.910Z,1017.1
2019-01-06T00:28:02.446Z,1017.12
2019-01-06T00:29:00.962Z,1017.1
2019-01-06T00:29:59.504Z,1017.13
2019-01-06T00:30:58.072Z,1017.12
2019-01-06T00:31:56.599Z,1017.15
2019-01-06T00:32:55.111Z,1017.16
2019-01-06T00:33:53.646Z,1017.18
2019-01-06T00:34:52.272Z,1017.17
2019-01-06T00:35:50.819Z,1017.12
2019-01-06T00:36:49.704Z,1017.17
2019-01-06T00:37:48.230Z,1017.12
2019-01-06T00:38:46.774Z,1017.11
2019-01-06T00:39:45.546Z,1017.22
2019-01-06T00:40:44.166Z,1017.16
2019-01-06T00:43:24.178Z,1017.22
2019-01-06T00:44:22.678Z,1017.18
2019-01-06T00:45:21.193Z,1017.3
2019-01-06T00:46:19.711Z,1017.24
2019-01-06T00:47:18.301Z,1017.25
2019-01-06T00:48:16.931Z,1017.29
2019-01-06T00:49:15.671Z,1017.27
2019-01-06T00:50:14.271Z,1017.31
2019-01-06T00:51:12.804Z,1017.35
2019-01-06T00:52:11.672Z,1017.35
2019-01-06T00:53:10.260Z,1017.35
2019-01-06T00:54:08.849Z,1017.34
2019-01-06T00:55:07.776Z,1017.33
2019-01-06T00:56:06.358Z,1017.36
2019-01-06T00:57:05.018Z,1017.32
2019-01-06T00:58:03.792Z,1017.4
2019-01-06T00:59:02.364Z,1017.39
2019-01-06T01:00:01.047Z,1017.41
2019-01-06T01:00:59.853Z,1017.33
2019-01-06T01:01:58.417Z,1017.37
2019-01-06T01:02:57.168Z,1017.34
2019-01-06T01:03:55.752Z,1017.38
2019-01-06T01:04:54.310Z,1017.38
2019-01-06T01:05:52.919Z,1017.36
2019-01-06T01:06:51.416Z,1017.38
2019-01-06T01:07:50.106Z,1017.34
2019-01-06T01:08:48.710Z,1017.3
2019-01-06T01:11:12.433Z,1017.25
2019-01-06T01:12:11.227Z,1017.29
2019-01-06T01:13:09.767Z,1017.34
2019-01-06T01:14:08.353Z,1017.35
2019-01-06T01:15:06.927Z,1017.32
2019-01-06T01:16:05.454Z,1017.27
2019-01-06T01:17:04.059Z,1017.36
2019-01-06T01:18:02.613Z,1017.39
2019-01-06T01:19:01.502Z,1017.42
2019-01-06T01:20:00.203Z,1017.43
2019-01-06T01:20:58.793Z,1017.48
2019-01-06T01:21:57.501Z,1017.43
2019-01-06T01:22:56.337Z,1017.43
2019-01-06T01:23:55.016Z,1017.4
2019-01-06T01:24:54.747Z,1017.4
2019-01-06T01:25:52.389Z,1017.46
2019-01-06T01:26:51.065Z,1017.43
2019-01-06T01:27:49.636Z,1017.46
2019-01-06T01:28:48.170Z,1017.47
2019-01-06T01:29:46.688Z,1017.44
2019-01-06T01:30:45.212Z,1017.49
2019-01-06T01:31:43.793Z,1017.48
2019-01-06T01:32:42.374Z,1017.51
2019-01-06T01:33:40.927Z,1017.49
2019-01-06T01:34:39.817Z,1017.51
2019-01-06T01:35:38.381Z,1017.53
2019-01-06T01:36:36.966Z,1017.52
2019-01-06T01:37:35.735Z,1017.55
2019-01-06T01:38:34.247Z,1017.54
2019-01-06T01:39:32.779Z,1017.48
2019-01-06T01:40:31.400Z,1017.52
2019-01-06T01:41:29.923Z,1017.55
2019-01-06T01:42:28.443Z,1017.5
2019-01-06T01:43:27.150Z,1017.46
2019-01-06T01:44:25.881Z,1017.48
2019-01-06T01:45:24.410Z,1017.53
2019-01-06T01:46:22.888Z,1017.48
2019-01-06T01:47:21.757Z,1017.51
2019-01-06T01:48:20.261Z,1017.49
2019-01-06T01:49:18.873Z,1017.5
2019-01-06T01:50:17.492Z,1017.53
2019-01-06T01:51:15.987Z,1017.5
2019-01-06T01:52:14.462Z,1017.48
2019-01-06T01:53:12.998Z,1017.47
2019-01-06T01:54:11.582Z,1017.49
2019-01-06T01:55:10.133Z,1017.49
2019-01-06T01:56:08.680Z,1017.48
2019-01-06T01:57:07.213Z,1017.45
2019-01-06T01:58:05.991Z,1017.46
2019-01-06T01:59:04.536Z,1017.43
2019-01-06T02:00:03.152Z,1017.46
2019-01-06T02:01:02.096Z,1017.48
2019-01-06T02:02:00.686Z,1017.43
2019-01-06T02:02:59.265Z,1017.46
2019-01-06T02:03:57.790Z,1017.53
2019-01-06T02:04:56.319Z,1017.51
2019-01-06T02:05:54.864Z,1017.45
2019-01-06T02:06:53.880Z,1017.46
2019-01-06T02:07:52.398Z,1017.49
2019-01-06T02:08:51.446Z,1017.55
2019-01-06T02:09:50.087Z,1017.51
2019-01-06T02:10:48.611Z,1017.54
2019-01-06T02:11:47.301Z,1017.49
2019-01-06T02:12:46.022Z,1017.52
2019-01-06T02:13:44.525Z,1017.52
2019-01-06T02:14:43.433Z,1017.53
2019-01-06T02:15:41.951Z,1017.47
2019-01-06T02:16:40.538Z,1017.55
2019-01-06T02:17:39.118Z,1017.56
2019-01-06T02:18:37.996Z,1017.57
2019-01-06T02:19:36.532Z,1017.57
2019-01-06T02:20:35.406Z,1017.54
2019-01-06T02:21:33.965Z,1017.51
2019-01-06T02:22:32.509Z,1017.57
2019-01-06T02:23:31.058Z,1017.54
2019-01-06T02:24:29.551Z,1017.55
2019-01-06T02:25:28.061Z,1017.55
2019-01-06T02:26:26.626Z,1017.54
2019-01-06T02:27:25.544Z,1017.52
2019-01-06T02:28:24.209Z,1017.53
2019-01-06T02:31:04.263Z,1017.52
2019-01-06T02:32:02.998Z,1017.62
2019-01-06T02:33:01.556Z,1017.59
2019-01-06T02:34:00.085Z,1017.65
2019-01-06T02:34:58.639Z,1017.62
2019-01-06T02:35:57.227Z,1017.64
2019-01-06T02:38:37.855Z,1017.63
2019-01-06T02:39:36.368Z,1017.59
2019-01-06T02:40:35.157Z,1017.63
2019-01-06T02:41:33.751Z,1017.6
2019-01-06T02:42:32.236Z,1017.61
2019-01-06T02:43:30.760Z,1017.62
2019-01-06T02:44:29.643Z,1017.6
2019-01-06T02:45:28.865Z,1017.56
2019-01-06T02:46:27.657Z,1017.58
2019-01-06T02:47:26.179Z,1017.55
2019-01-06T02:48:24.699Z,1017.55
2019-01-06T02:49:23.612Z,1017.54
2019-01-06T02:50:22.192Z,1017.54
2019-01-06T02:51:20.684Z,1017.58
2019-01-06T02:52:19.246Z,1017.56
2019-01-06T02:53:17.732Z,1017.53
2019-01-06T02:54:16.210Z,1017.52
2019-01-06T02:55:14.741Z,1017.53
2019-01-06T02:56:13.289Z,1017.51
2019-01-06T02:57:11.824Z,1017.51
2019-01-06T02:58:10.334Z,1017.48
2019-01-06T02:59:08.885Z,1017.47
2019-01-06T03:00:07.398Z,1017.49
2019-01-06T03:01:05.954Z,1017.53
2019-01-06T03:02:04.457Z,1017.5
2019-01-06T03:03:03.034Z,1017.49
2019-01-06T03:04:01.571Z,1017.48
2019-01-06T03:06:24.465Z,1017.49
2019-01-06T03:07:23.318Z,1017.47
2019-01-06T03:08:21.919Z,1017.46
2019-01-06T03:09:20.708Z,1017.47
2019-01-06T03:10:19.381Z,1017.43
2019-01-06T03:11:17.997Z,1017.45
2019-01-06T03:12:16.603Z,1017.42
2019-01-06T03:13:15.383Z,1017.43
2019-01-06T03:14:13.896Z,1017.42
2019-01-06T03:15:12.523Z,1017.41
2019-01-06T03:16:11.096Z,1017.41
2019-01-06T03:17:09.609Z,1017.42
2019-01-06T03:18:08.178Z,1017.36
2019-01-06T03:19:07.029Z,1017.37
2019-01-06T03:20:05.826Z,1017.37
2019-01-06T03:21:04.390Z,1017.32
2019-01-06T03:22:03.042Z,1017.32
2019-01-06T03:23:01.588Z,1017.3
2019-01-06T03:24:00.093Z,1017.36
2019-01-06T03:24:58.631Z,1017.3
2019-01-06T03:25:57.178Z,1017.26
2019-01-06T03:26:55.754Z,1017.25
2019-01-06T03:27:54.288Z,1017.28
2019-01-06T03:28:52.796Z,1017.27
2019-01-06T03:29:51.429Z,1017.26
2019-01-06T03:30:50.363Z,1017.3
2019-01-06T03:31:48.668Z,1017.24
2019-01-06T03:32:47.300Z,1017.23
2019-01-06T03:33:45.962Z,1017.23
2019-01-06T03:34:44.496Z,1017.22
2019-01-06T03:35:43.241Z,1017.22
2019-01-06T03:36:41.827Z,1017.17
2019-01-06T03:39:22.140Z,1017.29
2019-01-06T03:40:20.696Z,1017.3
2019-01-06T03:41:19.626Z,1017.3
2019-01-06T03:42:18.216Z,1017.18
2019-01-06T03:43:16.697Z,1017.19
2019-01-06T03:44:15.480Z,1017.25
2019-01-06T03:45:14.045Z,1017.23
2019-01-06T03:46:12.601Z,1017.22
2019-01-06T03:47:11.383Z,1017.23
2019-01-06T03:48:10.095Z,1017.25
2019-01-06T03:49:08.891Z,1017.25
2019-01-06T03:50:07.439Z,1017.36
2019-01-06T03:51:05.943Z,1017.29
2019-01-06T03:52:04.578Z,1017.31
2019-01-06T03:53:03.220Z,1017.28
2019-01-06T03:54:01.883Z,1017.28
2019-01-06T03:55:00.614Z,1017.28
2019-01-06T03:55:59.443Z,1017.25
2019-01-06T03:56:57.976Z,1017.29
2019-01-06T03:57:56.527Z,1017.29
2019-01-06T03:58:55.092Z,1017.31
2019-01-06T03:59:53.609Z,1017.31
2019-01-06T04:00:52.531Z,1017.36
2019-01-06T04:01:50.739Z,1017.3
2019-01-06T04:02:49.560Z,1017.37
2019-01-06T04:03:48.110Z,1017.28
2019-01-06T04:04:46.639Z,1017.34
2019-01-06T04:05:45.619Z,1017.3
2019-01-06T04:06:44.128Z,1017.22
2019-01-06T04:07:42.662Z,1017.29
2019-01-06T04:08:41.277Z,1017.26
2019-01-06T04:09:39.798Z,1017.3
2019-01-06T04:10:38.374Z,1017.28
2019-01-06T04:11:36.863Z,1017.34
2019-01-06T04:12:35.741Z,1017.34
2019-01-06T04:13:34.308Z,1017.3
2019-01-06T04:14:32.924Z,1017.28
2019-01-06T04:15:31.790Z,1017.29
2019-01-06T04:16:30.308Z,1017.27
2019-01-06T04:17:28.816Z,1017.29
2019-01-06T04:18:27.360Z,1017.25
2019-01-06T04:19:25.952Z,1017.19
2019-01-06T04:20:24.540Z,1017.27
2019-01-06T04:21:23.473Z,1017.27
2019-01-06T04:22:22.131Z,1017.22
2019-01-06T04:23:20.645Z,1017.23
2019-01-06T04:24:19.458Z,1017.26
2019-01-06T04:25:18.126Z,1017.23
2019-01-06T04:26:16.681Z,1017.23
2019-01-06T04:27:15.480Z,1017.25
2019-01-06T04:28:14.225Z,1017.21
2019-01-06T04:29:12.824Z,1017.2
2019-01-06T04:30:11.538Z,1017.19
2019-01-06T04:31:10.041Z,1017.23
2019-01-06T04:32:08.603Z,1017.21
2019-01-06T04:33:07.110Z,1017.2
2019-01-06T04:34:05.652Z,1017.18
2019-01-06T04:35:04.266Z,1017.18
2019-01-06T04:36:02.891Z,1017.24
2019-01-06T04:37:01.604Z,1017.18
2019-01-06T04:38:00.140Z,1017.23
2019-01-06T04:38:58.661Z,1017.24
2019-01-06T04:39:57.652Z,1017.18
2019-01-06T04:40:56.255Z,1017.16
2019-01-06T04:41:54.846Z,1017.15
2019-01-06T04:42:54.158Z,1017.15
2019-01-06T04:43:52.680Z,1017.16
2019-01-06T04:44:51.306Z,1017.18
2019-01-06T04:45:49.834Z,1017.17
2019-01-06T04:46:48.352Z,1017.18
2019-01-06T04:47:46.951Z,1017.21
2019-01-06T04:48:45.461Z,1017.19
2019-01-06T04:49:44.019Z,1017.19
2019-01-06T04:50:42.548Z,1017.16
2019-01-06T04:51:41.169Z,1017.15
2019-01-06T04:52:39.950Z,1017.14
2019-01-06T04:53:38.536Z,1017.18
2019-01-06T04:54:37.070Z,1017.17
2019-01-06T04:55:35.808Z,1017.22
2019-01-06T04:56:34.301Z,1017.16
2019-01-06T04:57:32.919Z,1017.18
2019-01-06T04:58:31.531Z,1017.14
2019-01-06T04:59:30.213Z,1017.19
2019-01-06T05:00:28.797Z,1017.15
2019-01-06T05:01:27.575Z,1017.16
2019-01-06T05:02:26.302Z,1017.12
2019-01-06T05:03:24.866Z,1017.15
2019-01-06T05:04:23.512Z,1017.14
2019-01-06T05:05:22.190Z,1017.15
2019-01-06T05:06:20.770Z,1017.19
2019-01-06T05:07:19.659Z,1017.2
2019-01-06T05:08:18.205Z,1017.2
2019-01-06T05:09:16.712Z,1017.19
2019-01-06T05:10:15.633Z,1017.16
2019-01-06T05:11:14.133Z,1017.15
2019-01-06T05:12:12.699Z,1017.12
2019-01-06T05:13:11.273Z,1017.16
2019-01-06T05:14:09.755Z,1017.15
2019-01-06T05:15:08.285Z,1017.11
2019-01-06T05:16:06.795Z,1017.11
2019-01-06T05:17:05.368Z,1017.12
2019-01-06T05:18:03.882Z,1017.13
2019-01-06T05:19:02.416Z,1017.13
2019-01-06T05:20:00.923Z,1017.09
2019-01-06T05:20:59.545Z,1017.15
2019-01-06T05:21:58.114Z,1017.07
2019-01-06T05:22:56.721Z,1017.15
2019-01-06T05:23:55.567Z,1017.17
2019-01-06T05:24:54.222Z,1017.1
2019-01-06T05:25:52.821Z,1017.09
2019-01-06T05:26:51.383Z,1017.06
2019-01-06T05:27:49.886Z,1017.07
2019-01-06T05:28:48.540Z,1017.01
2019-01-06T05:29:47.044Z,1017.01
2019-01-06T05:30:45.591Z,1017.04
2019-01-06T05:31:44.149Z,1017.04
2019-01-06T05:32:43.071Z,1017.03
2019-01-06T05:33:41.873Z,1017.08
2019-01-06T05:34:40.397Z,1017.1
2019-01-06T05:35:39.033Z,1017.1
2019-01-06T05:36:37.693Z,1017.07
2019-01-06T05:37:36.210Z,1017.08
2019-01-06T05:38:34.711Z,1017.05
2019-01-06T05:39:33.331Z,1016.98
2019-01-06T05:40:32.051Z,1016.95
2019-01-06T05:41:30.598Z,1016.94
2019-01-06T05:42:29.202Z,1016.99
2019-01-06T05:43:28.165Z,1016.95
2019-01-06T05:44:26.664Z,1016.99
2019-01-06T05:45:25.233Z,1016.99
2019-01-06T05:46:23.788Z,1017.03
2019-01-06T05:47:22.339Z,1017.08
2019-01-06T05:48:20.845Z,1017.14
2019-01-06T05:49:19.496Z,1017.18
2019-01-06T05:50:18.214Z,1017.14
2019-01-06T05:51:16.774Z,1017.19
2019-01-06T05:52:15.848Z,1017.19
2019-01-06T05:53:14.340Z,1017.14
2019-01-06T05:54:12.931Z,1017.14
2019-01-06T05:55:11.449Z,1017.16
2019-01-06T05:56:09.962Z,1017.23
2019-01-06T05:57:08.524Z,1017.18
2019-01-06T05:58:06.991Z,1017.27
2019-01-06T05:59:05.596Z,1017.24
2019-01-06T06:00:04.101Z,1017.25
2019-01-06T06:01:02.691Z,1017.28
2019-01-06T06:02:01.274Z,1017.27
2019-01-06T06:02:59.994Z,1017.26
2019-01-06T06:03:58.499Z,1017.2
2019-01-06T06:04:57.055Z,1017.18
2019-01-06T06:05:55.780Z,1017.2
2019-01-06T06:08:36.124Z,1017.19
2019-01-06T06:09:34.621Z,1017.24
2019-01-06T06:10:33.156Z,1017.25
2019-01-06T06:11:31.715Z,1017.22
2019-01-06T06:12:30.237Z,1017.27
2019-01-06T06:13:28.801Z,1017.32
2019-01-06T06:14:27.672Z,1017.29
2019-01-06T06:15:26.176Z,1017.3
2019-01-06T06:16:24.735Z,1017.27
2019-01-06T06:17:23.677Z,1017.28
2019-01-06T06:20:03.701Z,1017.29
2019-01-06T06:21:02.221Z,1017.33
2019-01-06T06:22:00.828Z,1017.33
2019-01-06T06:23:00.205Z,1017.32
2019-01-06T06:23:58.696Z,1017.32
2019-01-06T06:24:57.190Z,1017.41
2019-01-06T06:25:55.725Z,1017.35
2019-01-06T06:26:54.257Z,1017.34
2019-01-06T06:37:48.010Z,1017.47
2019-01-06T06:38:46.520Z,1017.41
2019-01-06T06:39:45.264Z,1017.39
2019-01-06T06:40:44.073Z,1017.41
2019-01-06T06:41:42.632Z,1017.34
2019-01-06T06:42:41.327Z,1017.36
2019-01-06T06:43:39.906Z,1017.41
2019-01-06T06:44:38.416Z,1017.4
2019-01-06T06:45:36.918Z,1017.38
2019-01-06T06:46:35.446Z,1017.43
2019-01-06T06:47:33.971Z,1017.44
2019-01-06T06:48:32.727Z,1017.39
2019-01-06T06:49:31.354Z,1017.42
2019-01-06T06:50:29.996Z,1017.41
2019-01-06T06:51:28.520Z,1017.43
2019-01-06T06:52:27.398Z,1017.45
2019-01-06T06:53:25.981Z,1017.42
2019-01-06T06:54:24.526Z,1017.44
2019-01-06T06:55:23.158Z,1017.44
2019-01-06T06:56:21.998Z,1017.44
2019-01-06T06:57:20.525Z,1017.46
2019-01-06T06:58:19.117Z,1017.53
2019-01-06T06:59:17.866Z,1017.53
2019-01-06T07:00:16.335Z,1017.53
2019-01-06T07:01:15.095Z,1017.56
2019-01-06T07:02:13.636Z,1017.54
2019-01-06T07:03:12.149Z,1017.59
2019-01-06T07:04:10.720Z,1017.53
2019-01-06T07:05:09.622Z,1017.57
2019-01-06T07:06:08.499Z,1017.6
2019-01-06T07:07:07.247Z,1017.62
2019-01-06T07:08:05.926Z,1017.65
2019-01-06T07:09:04.607Z,1017.68
2019-01-06T07:10:03.535Z,1017.66
2019-01-06T07:11:02.148Z,1017.69
2019-01-06T07:12:00.696Z,1017.64
2019-01-06T07:12:59.309Z,1017.73
2019-01-06T07:13:58.002Z,1017.73
2019-01-06T07:14:56.622Z,1017.75
2019-01-06T07:15:55.330Z,1017.75
2019-01-06T07:16:54.125Z,1017.78
2019-01-06T07:17:52.697Z,1017.78
2019-01-06T07:18:51.385Z,1017.76
2019-01-06T07:19:49.933Z,1017.76
2019-01-06T07:20:48.503Z,1017.77
2019-01-06T07:21:47.827Z,1017.75
2019-01-06T07:22:45.875Z,1017.77
2019-01-06T07:23:44.424Z,1017.8
2019-01-06T07:24:43.107Z,1017.81
2019-01-06T07:25:41.994Z,1017.82
2019-01-06T07:26:40.576Z,1017.84
2019-01-06T07:27:39.377Z,1017.78
2019-01-06T07:28:38.103Z,1017.83
2019-01-06T07:29:36.710Z,1017.93
2019-01-06T07:30:35.623Z,1017.83
2019-01-06T07:31:34.340Z,1017.81
2019-01-06T07:32:33.078Z,1017.88
2019-01-06T07:35:13.627Z,1017.94
2019-01-06T07:36:12.166Z,1017.97
2019-01-06T07:37:10.721Z,1017.97
2019-01-06T07:38:09.577Z,1017.97
2019-01-06T07:39:08.208Z,1017.98
2019-01-06T07:40:06.909Z,1017.97
2019-01-06T07:41:05.535Z,1017.97
2019-01-06T07:42:04.117Z,1018
2019-01-06T07:43:02.680Z,1017.99
2019-01-06T07:44:01.392Z,1018.02
2019-01-06T07:45:00.277Z,1018.06
2019-01-06T07:45:58.784Z,1018.07
2019-01-06T07:46:57.597Z,1018.11
2019-01-06T07:47:56.156Z,1018.1
2019-01-06T07:51:34.968Z,1018.13
2019-01-06T07:52:33.955Z,1018.12
2019-01-06T07:53:32.519Z,1018.19
2019-01-06T07:54:31.215Z,1018.12
2019-01-06T07:55:29.711Z,1018.14
2019-01-06T07:56:28.460Z,1018.1
2019-01-06T07:57:27.029Z,1018.16
2019-01-06T07:58:25.869Z,1018.16
2019-01-06T07:59:24.397Z,1018.14
2019-01-06T08:00:22.997Z,1018.14
2019-01-06T08:01:21.790Z,1018.2
2019-01-06T08:02:20.321Z,1018.14
2019-01-06T08:03:18.896Z,1018.22
2019-01-06T08:04:17.457Z,1018.21
2019-01-06T08:07:56.501Z,1018.24
2019-01-06T08:08:55.524Z,1018.23
2019-01-06T08:09:54.198Z,1018.26
2019-01-06T08:12:30.876Z,1018.25
2019-01-06T08:13:29.235Z,1018.27
2019-01-06T08:14:27.906Z,1018.32
2019-01-06T08:15:26.610Z,1018.31
2019-01-06T08:16:25.665Z,1018.36
2019-01-06T08:17:24.410Z,1018.33
2019-01-06T08:18:22.984Z,1018.35
2019-01-06T08:19:21.546Z,1018.37
2019-01-06T08:20:20.062Z,1018.33
2019-01-06T08:21:18.722Z,1018.36
2019-01-06T08:22:17.501Z,1018.37
2019-01-06T08:23:16.197Z,1018.38
2019-01-06T08:26:54.996Z,1018.43
2019-01-06T08:27:53.562Z,1018.4
2019-01-06T08:28:52.164Z,1018.43
2019-01-06T08:29:50.769Z,1018.52
2019-01-06T08:32:31.018Z,1018.45
2019-01-06T08:33:29.888Z,1018.42
2019-01-06T08:36:10.281Z,1018.44
2019-01-06T08:37:09.001Z,1018.44
2019-01-06T08:38:07.846Z,1018.43
2019-01-06T08:39:06.432Z,1018.44
2019-01-06T08:40:05.108Z,1018.47
2019-01-06T08:41:04.388Z,1018.48
2019-01-06T08:42:02.293Z,1018.5
2019-01-06T08:43:00.965Z,1018.54
2019-01-06T08:43:59.991Z,1018.55
2019-01-06T08:44:58.626Z,1018.49
2019-01-06T08:45:57.192Z,1018.53
2019-01-06T08:46:56.074Z,1018.55
2019-01-06T08:47:54.697Z,1018.5
2019-01-06T08:48:53.482Z,1018.57
2019-01-06T08:49:52.092Z,1018.52
2019-01-06T08:50:50.633Z,1018.56
2019-01-06T08:51:49.174Z,1018.5
2019-01-06T08:52:47.706Z,1018.54
2019-01-06T08:53:46.262Z,1018.57
2019-01-06T08:54:44.843Z,1018.52
2019-01-06T08:55:43.719Z,1018.57
2019-01-06T08:56:42.289Z,1018.6
2019-01-06T08:57:40.805Z,1018.56
2019-01-06T08:58:39.694Z,1018.59
2019-01-06T08:59:39.164Z,1018.59
2019-01-06T09:00:37.803Z,1018.61
2019-01-06T09:01:36.326Z,1018.58
2019-01-06T09:02:34.859Z,1018.59
2019-01-06T09:03:35.077Z,1018.58
2019-01-06T09:04:32.469Z,1018.59
2019-01-06T09:05:31.128Z,1018.55
2019-01-06T09:06:29.779Z,1018.63
2019-01-06T09:07:28.387Z,1018.59
2019-01-06T09:08:27.010Z,1018.61
2019-01-06T09:11:07.285Z,1018.61
2019-01-06T09:12:06.172Z,1018.6
2019-01-06T09:13:04.738Z,1018.66
2019-01-06T09:14:03.320Z,1018.69
2019-01-06T09:15:02.324Z,1018.69
2019-01-06T09:16:00.762Z,1018.72
2019-01-06T09:16:59.371Z,1018.72
2019-01-06T09:17:58.213Z,1018.79
2019-01-06T09:18:56.754Z,1018.8
2019-01-06T09:19:56.500Z,1018.82
2019-01-06T09:20:54.222Z,1018.81
2019-01-06T09:21:52.886Z,1018.83
2019-01-06T09:22:51.877Z,1018.81
2019-01-06T09:23:50.511Z,1018.81
2019-01-06T09:24:49.077Z,1018.83
2019-01-06T09:25:47.631Z,1018.82
2019-01-06T09:26:46.234Z,1018.83
2019-01-06T09:27:44.799Z,1018.79
2019-01-06T09:39:13.656Z,1018.82
2019-01-06T09:40:12.380Z,1018.83
2019-01-06T09:41:10.977Z,1018.88
2019-01-06T09:42:09.629Z,1018.88
2019-01-06T09:43:08.259Z,1018.83
2019-01-06T09:44:06.875Z,1018.84
2019-01-06T09:45:05.769Z,1018.85
2019-01-06T09:46:04.381Z,1018.83
2019-01-06T09:47:03.120Z,1018.83
2019-01-06T09:48:01.674Z,1018.84
2019-01-06T09:49:00.448Z,1018.9
2019-01-06T09:49:59.226Z,1018.85
2019-01-06T09:50:57.983Z,1018.82
2019-01-06T09:51:56.622Z,1018.82
2019-01-06T09:52:55.331Z,1018.87
2019-01-06T09:53:53.882Z,1018.84
2019-01-06T09:54:52.530Z,1018.85
2019-01-06T09:55:51.042Z,1018.85
2019-01-06T09:56:49.824Z,1018.8
2019-01-06T09:57:48.875Z,1018.78
2019-01-06T09:58:47.684Z,1018.77
2019-01-06T09:59:46.266Z,1018.75
2019-01-06T10:00:44.815Z,1018.73
2019-01-06T10:01:43.515Z,1018.73
2019-01-06T10:02:42.217Z,1018.74
2019-01-06T10:03:40.781Z,1018.68
2019-01-06T10:04:39.443Z,1018.74
2019-01-06T10:05:38.045Z,1018.69
2019-01-06T10:06:36.662Z,1018.69
2019-01-06T10:07:35.219Z,1018.69
2019-01-06T10:08:34.012Z,1018.67
2019-01-06T10:09:32.584Z,1018.71
2019-01-06T10:10:31.482Z,1018.73
2019-01-06T10:11:30.043Z,1018.71
2019-01-06T10:12:28.523Z,1018.73
2019-01-06T10:13:27.126Z,1018.75
2019-01-06T10:14:25.694Z,1018.73
2019-01-06T10:15:24.468Z,1018.7
2019-01-06T10:16:23.013Z,1018.71
2019-01-06T10:17:21.732Z,1018.74
2019-01-06T10:18:20.459Z,1018.74
2019-01-06T10:19:19.134Z,1018.71
2019-01-06T10:20:17.731Z,1018.7
2019-01-06T10:21:16.275Z,1018.73
2019-01-06T10:22:14.929Z,1018.76
2019-01-06T10:23:13.866Z,1018.71
2019-01-06T10:24:12.504Z,1018.8
2019-01-06T10:25:11.241Z,1018.7
2019-01-06T10:26:09.803Z,1018.77
2019-01-06T10:27:08.446Z,1018.72
2019-01-06T10:28:06.917Z,1018.68
2019-01-06T10:29:05.833Z,1018.68
2019-01-06T10:30:04.437Z,1018.76
2019-01-06T10:31:02.922Z,1018.74
2019-01-06T10:32:01.836Z,1018.67
2019-01-06T10:33:00.330Z,1018.68
2019-01-06T10:33:58.875Z,1018.65
2019-01-06T10:34:57.424Z,1018.71
2019-01-06T10:35:55.993Z,1018.72
2019-01-06T10:36:54.607Z,1018.7
2019-01-06T10:37:53.142Z,1018.72
2019-01-06T10:38:52.012Z,1018.78
2019-01-06T10:39:50.533Z,1018.7
2019-01-06T10:40:49.118Z,1018.67
2019-01-06T10:41:47.988Z,1018.69
2019-01-06T10:42:46.588Z,1018.71
2019-01-06T10:43:45.326Z,1018.74
2019-01-06T10:44:44.132Z,1018.71
2019-01-06T10:45:42.685Z,1018.71
2019-01-06T10:46:41.241Z,1018.67
2019-01-06T10:47:39.996Z,1018.67
2019-01-06T10:48:38.649Z,1018.68
2019-01-06T10:49:37.259Z,1018.65
2019-01-06T10:50:36.467Z,1018.67
2019-01-06T10:51:35.033Z,1018.66
2019-01-06T10:52:33.698Z,1018.7
2019-01-06T10:53:32.207Z,1018.69
2019-01-06T10:54:30.801Z,1018.69
2019-01-06T10:55:29.351Z,1018.71
2019-01-06T10:56:28.215Z,1018.7
2019-01-06T10:57:26.771Z,1018.71
2019-01-06T10:58:25.330Z,1018.7
2019-01-06T10:59:24.152Z,1018.71
2019-01-06T11:00:22.666Z,1018.74
2019-01-06T11:01:21.295Z,1018.73
2019-01-06T11:02:19.988Z,1018.73
2019-01-06T11:03:18.624Z,1018.71
2019-01-06T11:04:17.336Z,1018.73
2019-01-06T11:05:16.190Z,1018.76
2019-01-06T11:06:14.786Z,1018.73
2019-01-06T11:07:13.433Z,1018.75
2019-01-06T11:08:12.221Z,1018.76
2019-01-06T11:09:10.862Z,1018.74
2019-01-06T11:10:09.845Z,1018.75
2019-01-06T11:11:08.513Z,1018.76
2019-01-06T11:12:07.116Z,1018.77
2019-01-06T11:13:05.997Z,1018.73
2019-01-06T11:14:04.539Z,1018.73
2019-01-06T11:15:03.103Z,1018.8
2019-01-06T11:16:02.001Z,1018.76
2019-01-06T11:17:00.556Z,1018.82
2019-01-06T11:17:59.092Z,1018.78
2019-01-06T11:18:57.735Z,1018.77
2019-01-06T11:19:56.327Z,1018.76
2019-01-06T11:20:55.543Z,1018.73
2019-01-06T11:21:54.127Z,1018.77
2019-01-06T11:22:52.681Z,1018.78
2019-01-06T11:23:51.201Z,1018.77
2019-01-06T11:24:49.778Z,1018.75
2019-01-06T11:25:48.274Z,1018.74
2019-01-06T11:26:47.045Z,1018.74
2019-01-06T11:27:45.798Z,1018.75
2019-01-06T11:28:44.433Z,1018.78
2019-01-06T11:29:42.998Z,1018.77
2019-01-06T11:30:41.798Z,1018.72
2019-01-06T11:31:40.427Z,1018.77
2019-01-06T11:32:39.099Z,1018.76
2019-01-06T11:33:37.794Z,1018.77
2019-01-06T11:34:36.466Z,1018.81
2019-01-06T11:35:35.233Z,1018.76
2019-01-06T11:36:33.800Z,1018.75
2019-01-06T11:37:32.635Z,1018.76
2019-01-06T11:38:31.310Z,1018.72
2019-01-06T11:39:30.207Z,1018.73
2019-01-06T11:40:28.862Z,1018.73
2019-01-06T11:41:27.479Z,1018.8
2019-01-06T11:42:26.025Z,1018.73
2019-01-06T11:43:24.723Z,1018.73
2019-01-06T11:44:23.175Z,1018.76
2019-01-06T11:45:21.974Z,1018.76
2019-01-06T11:46:20.518Z,1018.79
2019-01-06T11:47:19.139Z,1018.71
2019-01-06T11:48:17.983Z,1018.79
2019-01-06T11:49:16.604Z,1018.75
2019-01-06T11:50:15.263Z,1018.7
2019-01-06T11:51:14.069Z,1018.73
2019-01-06T11:52:12.628Z,1018.76
2019-01-06T11:53:11.490Z,1018.72
2019-01-06T11:54:10.074Z,1018.69
2019-01-06T11:55:08.627Z,1018.72
2019-01-06T11:56:07.140Z,1018.72
2019-01-06T11:57:05.732Z,1018.74
2019-01-06T11:58:04.369Z,1018.67
2019-01-06T11:59:02.974Z,1018.71
2019-01-06T12:00:01.711Z,1018.68
2019-01-06T12:01:00.376Z,1018.74
2019-01-06T12:01:59.222Z,1018.73
2019-01-06T12:02:57.837Z,1018.72
2019-01-06T12:03:56.399Z,1018.69
2019-01-06T12:04:54.975Z,1018.68
2019-01-06T12:05:53.908Z,1018.7
2019-01-06T12:06:52.588Z,1018.71
2019-01-06T12:07:51.904Z,1018.67
2019-01-06T12:08:50.795Z,1018.67
2019-01-06T12:09:49.372Z,1018.67
2019-01-06T12:10:47.914Z,1018.7
2019-01-06T12:11:46.403Z,1018.69
2019-01-06T12:12:44.990Z,1018.73
2019-01-06T12:13:43.583Z,1018.71
2019-01-06T12:14:42.320Z,1018.68
2019-01-06T12:15:41.380Z,1018.64
2019-01-06T12:18:21.568Z,1018.66
2019-01-06T12:19:20.309Z,1018.66
2019-01-06T12:20:18.910Z,1018.72
2019-01-06T12:21:17.541Z,1018.67
2019-01-06T12:22:16.305Z,1018.69
2019-01-06T12:23:14.805Z,1018.69
2019-01-06T12:24:13.447Z,1018.66
2019-01-06T12:25:12.027Z,1018.7
2019-01-06T12:26:10.616Z,1018.7
2019-01-06T12:27:09.229Z,1018.73
2019-01-06T12:28:08.349Z,1018.71
2019-01-06T12:29:06.937Z,1018.76
2019-01-06T12:30:05.534Z,1018.75
2019-01-06T12:31:04.132Z,1018.74
2019-01-06T12:32:02.738Z,1018.67
2019-01-06T12:33:01.546Z,1018.71
2019-01-06T12:34:00.313Z,1018.73
2019-01-06T12:34:58.948Z,1018.7
2019-01-06T12:35:57.653Z,1018.69
2019-01-06T12:36:56.197Z,1018.7
2019-01-06T12:37:54.826Z,1018.73
2019-01-06T12:38:55.528Z,1018.73
2019-01-06T12:39:52.412Z,1018.73
2019-01-06T12:40:51.024Z,1018.74
2019-01-06T12:41:49.653Z,1018.78
2019-01-06T12:42:48.235Z,1018.71